sensor_id;sensor_type;location;lat;lon;timestamp;P1;durP1;ratioP1;P2;durP2;ratioP2
6392;SDS011;3229;42.674;23.282;2023-02-19T00:02:11;13.90;;;8.57;;
6392;SDS011;3229;42.674;23.282;2023-02-19T00:04:37;15.43;;;8.83;;
6392;SDS011;3229;42.674;23.282;2023-02-19T00:07:04;12.80;;;8.87;;
6392;SDS011;3229;42.674;23.282;2023-02-19T00:09:32;15.70;;;9.03;;
6392;SDS011;3229;42.674;23.282;2023-02-19T00:11:59;15.73;;;8.37;;
6392;SDS011;3229;42.674;23.282;2023-02-19T00:14:26;15.83;;;8.17;;
6392;SDS011;3229;42.674;23.282;2023-02-19T00:16:53;14.17;;;8.33;;
6392;SDS011;3229;42.674;23.282;2023-02-19T00:19:19;15.17;;;8.63;;
6392;SDS011;3229;42.674;23.282;2023-02-19T00:21:46;13.30;;;8.13;;
6392;SDS011;3229;42.674;23.282;2023-02-19T00:24:15;14.83;;;8.70;;
6392;SDS011;3229;42.674;23.282;2023-02-19T00:26:43;19.70;;;8.83;;
6392;SDS011;3229;42.674;23.282;2023-02-19T00:29:11;14.77;;;8.33;;
6392;SDS011;3229;42.674;23.282;2023-02-19T00:31:40;12.33;;;8.10;;
6392;SDS011;3229;42.674;23.282;2023-02-19T00:34:08;13.73;;;8.20;;
6392;SDS011;3229;42.674;23.282;2023-02-19T00:36:35;15.30;;;8.23;;
6392;SDS011;3229;42.674;23.282;2023-02-19T00:39:03;13.30;;;8.53;;
6392;SDS011;3229;42.674;23.282;2023-02-19T00:41:31;15.00;;;9.23;;
6392;SDS011;3229;42.674;23.282;2023-02-19T00:44:00;15.37;;;8.50;;
6392;SDS011;3229;42.674;23.282;2023-02-19T00:46:29;13.70;;;8.10;;
6392;SDS011;3229;42.674;23.282;2023-02-19T00:48:57;14.57;;;8.63;;
6392;SDS011;3229;42.674;23.282;2023-02-19T00:51:25;14.53;;;9.03;;
6392;SDS011;3229;42.674;23.282;2023-02-19T00:53:54;11.77;;;8.87;;
6392;SDS011;3229;42.674;23.282;2023-02-19T00:56:21;13.43;;;8.73;;
6392;SDS011;3229;42.674;23.282;2023-02-19T00:58:48;13.63;;;8.57;;
6392;SDS011;3229;42.674;23.282;2023-02-19T01:01:16;11.13;;;7.73;;
6392;SDS011;3229;42.674;23.282;2023-02-19T01:03:43;13.30;;;8.37;;
6392;SDS011;3229;42.674;23.282;2023-02-19T01:06:11;13.63;;;8.37;;
6392;SDS011;3229;42.674;23.282;2023-02-19T01:08:39;15.77;;;8.87;;
6392;SDS011;3229;42.674;23.282;2023-02-19T01:11:07;13.40;;;8.30;;
6392;SDS011;3229;42.674;23.282;2023-02-19T01:13:35;13.40;;;8.80;;
6392;SDS011;3229;42.674;23.282;2023-02-19T01:16:02;11.80;;;8.13;;
6392;SDS011;3229;42.674;23.282;2023-02-19T01:18:32;16.07;;;9.00;;
6392;SDS011;3229;42.674;23.282;2023-02-19T01:20:59;16.77;;;9.23;;
6392;SDS011;3229;42.674;23.282;2023-02-19T01:23:31;16.40;;;8.77;;
6392;SDS011;3229;42.674;23.282;2023-02-19T01:25:58;12.40;;;8.00;;
6392;SDS011;3229;42.674;23.282;2023-02-19T01:28:24;12.00;;;8.53;;
6392;SDS011;3229;42.674;23.282;2023-02-19T01:30:51;12.33;;;8.40;;
6392;SDS011;3229;42.674;23.282;2023-02-19T01:33:18;10.67;;;7.87;;
6392;SDS011;3229;42.674;23.282;2023-02-19T01:35:46;11.50;;;8.07;;
6392;SDS011;3229;42.674;23.282;2023-02-19T01:38:13;17.03;;;8.17;;
6392;SDS011;3229;42.674;23.282;2023-02-19T01:40:40;12.23;;;8.33;;
6392;SDS011;3229;42.674;23.282;2023-02-19T01:43:10;12.20;;;8.13;;
6392;SDS011;3229;42.674;23.282;2023-02-19T01:45:41;12.63;;;8.40;;
6392;SDS011;3229;42.674;23.282;2023-02-19T01:48:10;12.03;;;8.17;;
6392;SDS011;3229;42.674;23.282;2023-02-19T01:50:40;10.37;;;7.27;;
6392;SDS011;3229;42.674;23.282;2023-02-19T01:53:12;11.90;;;7.53;;
6392;SDS011;3229;42.674;23.282;2023-02-19T01:55:42;12.53;;;8.60;;
6392;SDS011;3229;42.674;23.282;2023-02-19T01:58:13;14.23;;;7.70;;
6392;SDS011;3229;42.674;23.282;2023-02-19T02:00:41;12.00;;;8.03;;
6392;SDS011;3229;42.674;23.282;2023-02-19T02:03:08;13.03;;;7.93;;
6392;SDS011;3229;42.674;23.282;2023-02-19T02:05:40;15.23;;;8.60;;
6392;SDS011;3229;42.674;23.282;2023-02-19T02:08:14;11.80;;;7.93;;
6392;SDS011;3229;42.674;23.282;2023-02-19T02:11:00;14.33;;;8.73;;
6392;SDS011;3229;42.674;23.282;2023-02-19T02:13:27;11.27;;;7.67;;
6392;SDS011;3229;42.674;23.282;2023-02-19T02:15:58;12.93;;;7.90;;
6392;SDS011;3229;42.674;23.282;2023-02-19T02:18:34;12.10;;;7.87;;
6392;SDS011;3229;42.674;23.282;2023-02-19T02:21:25;11.97;;;7.97;;
6392;SDS011;3229;42.674;23.282;2023-02-19T02:24:31;12.20;;;7.80;;
6392;SDS011;3229;42.674;23.282;2023-02-19T02:27:35;11.60;;;8.20;;
6392;SDS011;3229;42.674;23.282;2023-02-19T02:30:11;11.33;;;7.50;;
6392;SDS011;3229;42.674;23.282;2023-02-19T02:32:50;11.73;;;7.67;;
6392;SDS011;3229;42.674;23.282;2023-02-19T02:35:22;12.10;;;7.80;;
6392;SDS011;3229;42.674;23.282;2023-02-19T02:37:54;13.73;;;8.00;;
6392;SDS011;3229;42.674;23.282;2023-02-19T02:40:25;10.57;;;7.70;;
6392;SDS011;3229;42.674;23.282;2023-02-19T02:42:51;14.23;;;8.43;;
6392;SDS011;3229;42.674;23.282;2023-02-19T02:45:24;16.47;;;6.93;;
6392;SDS011;3229;42.674;23.282;2023-02-19T02:50:52;12.67;;;7.57;;
6392;SDS011;3229;42.674;23.282;2023-02-19T02:53:24;14.43;;;7.60;;
6392;SDS011;3229;42.674;23.282;2023-02-19T02:56:15;14.63;;;7.67;;
6392;SDS011;3229;42.674;23.282;2023-02-19T02:58:43;13.67;;;7.77;;
6392;SDS011;3229;42.674;23.282;2023-02-19T03:01:15;11.93;;;7.50;;
6392;SDS011;3229;42.674;23.282;2023-02-19T03:04:04;11.90;;;7.10;;
6392;SDS011;3229;42.674;23.282;2023-02-19T03:06:34;13.17;;;7.63;;
6392;SDS011;3229;42.674;23.282;2023-02-19T03:09:05;12.67;;;8.27;;
6392;SDS011;3229;42.674;23.282;2023-02-19T03:11:37;11.30;;;7.37;;
6392;SDS011;3229;42.674;23.282;2023-02-19T03:14:24;12.37;;;7.80;;
6392;SDS011;3229;42.674;23.282;2023-02-19T03:17:15;13.40;;;7.63;;
6392;SDS011;3229;42.674;23.282;2023-02-19T03:20:04;13.67;;;7.87;;
6392;SDS011;3229;42.674;23.282;2023-02-19T03:22:36;10.50;;;7.57;;
6392;SDS011;3229;42.674;23.282;2023-02-19T03:25:06;16.27;;;8.07;;
6392;SDS011;3229;42.674;23.282;2023-02-19T03:27:54;9.47;;;7.60;;
6392;SDS011;3229;42.674;23.282;2023-02-19T03:30:24;13.67;;;7.97;;
6392;SDS011;3229;42.674;23.282;2023-02-19T03:32:57;12.87;;;7.77;;
6392;SDS011;3229;42.674;23.282;2023-02-19T03:35:32;11.00;;;7.33;;
6392;SDS011;3229;42.674;23.282;2023-02-19T03:38:03;13.37;;;7.90;;
6392;SDS011;3229;42.674;23.282;2023-02-19T03:40:39;13.47;;;8.07;;
6392;SDS011;3229;42.674;23.282;2023-02-19T03:43:14;11.87;;;7.37;;
6392;SDS011;3229;42.674;23.282;2023-02-19T03:45:46;11.67;;;7.77;;
6392;SDS011;3229;42.674;23.282;2023-02-19T03:48:24;13.60;;;8.17;;
6392;SDS011;3229;42.674;23.282;2023-02-19T03:51:16;11.17;;;7.43;;
6392;SDS011;3229;42.674;23.282;2023-02-19T03:53:58;14.93;;;8.03;;
6392;SDS011;3229;42.674;23.282;2023-02-19T03:56:34;11.37;;;7.30;;
6392;SDS011;3229;42.674;23.282;2023-02-19T03:59:08;11.77;;;7.60;;
6392;SDS011;3229;42.674;23.282;2023-02-19T04:01:40;13.23;;;8.27;;
6392;SDS011;3229;42.674;23.282;2023-02-19T04:04:14;12.73;;;8.00;;
6392;SDS011;3229;42.674;23.282;2023-02-19T04:06:43;12.63;;;7.57;;
6392;SDS011;3229;42.674;23.282;2023-02-19T04:09:18;10.77;;;7.40;;
6392;SDS011;3229;42.674;23.282;2023-02-19T04:11:47;12.20;;;7.30;;
6392;SDS011;3229;42.674;23.282;2023-02-19T04:14:16;14.10;;;7.87;;
6392;SDS011;3229;42.674;23.282;2023-02-19T04:16:48;14.37;;;8.67;;
6392;SDS011;3229;42.674;23.282;2023-02-19T04:19:21;13.33;;;7.70;;
6392;SDS011;3229;42.674;23.282;2023-02-19T04:21:52;10.47;;;7.57;;
6392;SDS011;3229;42.674;23.282;2023-02-19T04:24:21;13.20;;;7.73;;
6392;SDS011;3229;42.674;23.282;2023-02-19T04:26:51;14.00;;;7.60;;
6392;SDS011;3229;42.674;23.282;2023-02-19T04:29:19;11.33;;;7.00;;
6392;SDS011;3229;42.674;23.282;2023-02-19T04:31:46;10.27;;;7.10;;
6392;SDS011;3229;42.674;23.282;2023-02-19T04:34:13;10.67;;;7.47;;
6392;SDS011;3229;42.674;23.282;2023-02-19T04:36:41;15.10;;;7.63;;
6392;SDS011;3229;42.674;23.282;2023-02-19T04:39:07;11.43;;;8.07;;
6392;SDS011;3229;42.674;23.282;2023-02-19T04:41:34;10.63;;;6.90;;
6392;SDS011;3229;42.674;23.282;2023-02-19T04:44:01;13.80;;;8.40;;
6392;SDS011;3229;42.674;23.282;2023-02-19T04:46:28;12.80;;;8.13;;
6392;SDS011;3229;42.674;23.282;2023-02-19T04:48:54;17.27;;;8.10;;
6392;SDS011;3229;42.674;23.282;2023-02-19T04:51:21;13.53;;;7.90;;
6392;SDS011;3229;42.674;23.282;2023-02-19T04:53:50;11.53;;;7.83;;
6392;SDS011;3229;42.674;23.282;2023-02-19T04:56:16;8.93;;;6.83;;
6392;SDS011;3229;42.674;23.282;2023-02-19T04:58:43;14.20;;;7.60;;
6392;SDS011;3229;42.674;23.282;2023-02-19T05:01:10;10.43;;;7.17;;
6392;SDS011;3229;42.674;23.282;2023-02-19T05:03:38;15.00;;;7.07;;
6392;SDS011;3229;42.674;23.282;2023-02-19T05:06:06;11.53;;;6.70;;
6392;SDS011;3229;42.674;23.282;2023-02-19T05:08:34;9.93;;;6.93;;
6392;SDS011;3229;42.674;23.282;2023-02-19T05:11:03;14.10;;;7.37;;
6392;SDS011;3229;42.674;23.282;2023-02-19T05:13:31;13.23;;;7.10;;
6392;SDS011;3229;42.674;23.282;2023-02-19T05:15:59;10.03;;;6.83;;
6392;SDS011;3229;42.674;23.282;2023-02-19T05:18:27;9.20;;;6.90;;
6392;SDS011;3229;42.674;23.282;2023-02-19T05:20:56;8.87;;;6.53;;
6392;SDS011;3229;42.674;23.282;2023-02-19T05:23:23;9.60;;;6.90;;
6392;SDS011;3229;42.674;23.282;2023-02-19T05:25:51;11.07;;;6.90;;
6392;SDS011;3229;42.674;23.282;2023-02-19T05:28:19;9.37;;;7.10;;
6392;SDS011;3229;42.674;23.282;2023-02-19T05:30:52;9.53;;;6.30;;
6392;SDS011;3229;42.674;23.282;2023-02-19T05:33:21;9.67;;;5.80;;
6392;SDS011;3229;42.674;23.282;2023-02-19T05:35:50;10.73;;;6.60;;
6392;SDS011;3229;42.674;23.282;2023-02-19T05:38:19;7.57;;;5.87;;
6392;SDS011;3229;42.674;23.282;2023-02-19T05:40:46;9.07;;;6.30;;
6392;SDS011;3229;42.674;23.282;2023-02-19T05:43:13;12.70;;;5.93;;
6392;SDS011;3229;42.674;23.282;2023-02-19T05:45:42;6.30;;;5.40;;
6392;SDS011;3229;42.674;23.282;2023-02-19T05:48:09;9.57;;;6.57;;
6392;SDS011;3229;42.674;23.282;2023-02-19T05:50:36;7.10;;;5.37;;
6392;SDS011;3229;42.674;23.282;2023-02-19T05:53:04;7.43;;;5.07;;
6392;SDS011;3229;42.674;23.282;2023-02-19T05:55:32;9.77;;;6.33;;
6392;SDS011;3229;42.674;23.282;2023-02-19T05:58:00;9.37;;;5.90;;
6392;SDS011;3229;42.674;23.282;2023-02-19T06:00:28;7.97;;;5.43;;
6392;SDS011;3229;42.674;23.282;2023-02-19T06:02:56;6.70;;;5.13;;
6392;SDS011;3229;42.674;23.282;2023-02-19T06:05:23;6.40;;;4.87;;
6392;SDS011;3229;42.674;23.282;2023-02-19T06:07:50;5.73;;;5.13;;
6392;SDS011;3229;42.674;23.282;2023-02-19T06:10:17;7.90;;;5.30;;
6392;SDS011;3229;42.674;23.282;2023-02-19T06:12:44;5.53;;;4.80;;
6392;SDS011;3229;42.674;23.282;2023-02-19T06:15:11;7.43;;;5.10;;
6392;SDS011;3229;42.674;23.282;2023-02-19T06:17:37;7.70;;;5.10;;
6392;SDS011;3229;42.674;23.282;2023-02-19T06:20:06;7.30;;;5.80;;
6392;SDS011;3229;42.674;23.282;2023-02-19T06:22:33;5.63;;;4.73;;
6392;SDS011;3229;42.674;23.282;2023-02-19T06:25:00;6.70;;;5.13;;
6392;SDS011;3229;42.674;23.282;2023-02-19T06:27:27;5.30;;;4.73;;
6392;SDS011;3229;42.674;23.282;2023-02-19T06:29:54;5.73;;;5.00;;
6392;SDS011;3229;42.674;23.282;2023-02-19T06:32:21;8.20;;;4.70;;
6392;SDS011;3229;42.674;23.282;2023-02-19T06:34:48;6.67;;;4.50;;
6392;SDS011;3229;42.674;23.282;2023-02-19T06:37:16;6.20;;;4.70;;
6392;SDS011;3229;42.674;23.282;2023-02-19T06:39:42;5.20;;;4.70;;
6392;SDS011;3229;42.674;23.282;2023-02-19T06:42:09;6.00;;;4.90;;
6392;SDS011;3229;42.674;23.282;2023-02-19T06:44:36;5.93;;;4.93;;
6392;SDS011;3229;42.674;23.282;2023-02-19T06:47:03;6.07;;;4.50;;
6392;SDS011;3229;42.674;23.282;2023-02-19T06:49:30;5.00;;;4.50;;
6392;SDS011;3229;42.674;23.282;2023-02-19T06:51:56;6.10;;;4.30;;
6392;SDS011;3229;42.674;23.282;2023-02-19T06:54:26;5.33;;;4.70;;
6392;SDS011;3229;42.674;23.282;2023-02-19T06:56:52;5.97;;;4.43;;
6392;SDS011;3229;42.674;23.282;2023-02-19T06:59:21;5.70;;;4.43;;
6392;SDS011;3229;42.674;23.282;2023-02-19T07:01:47;5.97;;;3.97;;
6392;SDS011;3229;42.674;23.282;2023-02-19T07:04:14;3.37;;;2.97;;
6392;SDS011;3229;42.674;23.282;2023-02-19T07:06:41;8.57;;;2.93;;
6392;SDS011;3229;42.674;23.282;2023-02-19T07:09:08;7.37;;;3.27;;
6392;SDS011;3229;42.674;23.282;2023-02-19T07:11:37;4.03;;;3.63;;
6392;SDS011;3229;42.674;23.282;2023-02-19T07:14:05;4.00;;;3.60;;
6392;SDS011;3229;42.674;23.282;2023-02-19T07:16:33;3.33;;;2.83;;
6392;SDS011;3229;42.674;23.282;2023-02-19T07:19:01;6.35;;;3.90;;
6392;SDS011;3229;42.674;23.282;2023-02-19T07:21:28;5.28;;;3.40;;
6392;SDS011;3229;42.674;23.282;2023-02-19T07:23:55;5.90;;;2.90;;
6392;SDS011;3229;42.674;23.282;2023-02-19T07:26:22;6.30;;;3.30;;
6392;SDS011;3229;42.674;23.282;2023-02-19T07:28:51;3.63;;;3.08;;
6392;SDS011;3229;42.674;23.282;2023-02-19T07:31:19;4.10;;;2.97;;
6392;SDS011;3229;42.674;23.282;2023-02-19T07:33:48;4.13;;;3.00;;
6392;SDS011;3229;42.674;23.282;2023-02-19T07:36:16;7.13;;;3.33;;
6392;SDS011;3229;42.674;23.282;2023-02-19T07:38:44;4.78;;;3.42;;
6392;SDS011;3229;42.674;23.282;2023-02-19T07:41:11;7.50;;;4.10;;
6392;SDS011;3229;42.674;23.282;2023-02-19T07:43:38;5.20;;;3.30;;
6392;SDS011;3229;42.674;23.282;2023-02-19T07:46:07;7.60;;;3.40;;
6392;SDS011;3229;42.674;23.282;2023-02-19T07:48:35;4.43;;;3.63;;
6392;SDS011;3229;42.674;23.282;2023-02-19T07:51:03;4.13;;;3.70;;
6392;SDS011;3229;42.674;23.282;2023-02-19T07:53:32;4.35;;;3.70;;
6392;SDS011;3229;42.674;23.282;2023-02-19T07:56:00;7.35;;;3.53;;
6392;SDS011;3229;42.674;23.282;2023-02-19T07:58:28;5.82;;;4.43;;
6392;SDS011;3229;42.674;23.282;2023-02-19T08:00:55;7.47;;;4.35;;
6392;SDS011;3229;42.674;23.282;2023-02-19T08:03:24;4.85;;;3.35;;
6392;SDS011;3229;42.674;23.282;2023-02-19T08:05:49;6.07;;;4.03;;
6392;SDS011;3229;42.674;23.282;2023-02-19T08:08:17;6.40;;;4.18;;
6392;SDS011;3229;42.674;23.282;2023-02-19T08:10:44;4.55;;;3.70;;
6392;SDS011;3229;42.674;23.282;2023-02-19T08:13:29;4.50;;;3.50;;
6392;SDS011;3229;42.674;23.282;2023-02-19T08:16:08;7.20;;;4.07;;
6392;SDS011;3229;42.674;23.282;2023-02-19T08:18:38;6.57;;;4.43;;
6392;SDS011;3229;42.674;23.282;2023-02-19T08:21:05;4.97;;;3.92;;
6392;SDS011;3229;42.674;23.282;2023-02-19T08:23:32;4.88;;;4.03;;
6392;SDS011;3229;42.674;23.282;2023-02-19T08:25:59;4.28;;;3.75;;
6392;SDS011;3229;42.674;23.282;2023-02-19T08:28:26;7.43;;;3.72;;
6392;SDS011;3229;42.674;23.282;2023-02-19T08:30:56;7.82;;;4.13;;
6392;SDS011;3229;42.674;23.282;2023-02-19T08:33:25;8.65;;;4.28;;
6392;SDS011;3229;42.674;23.282;2023-02-19T08:35:53;5.03;;;4.53;;
6392;SDS011;3229;42.674;23.282;2023-02-19T08:38:20;6.22;;;4.40;;
6392;SDS011;3229;42.674;23.282;2023-02-19T08:40:47;5.05;;;4.00;;
6392;SDS011;3229;42.674;23.282;2023-02-19T08:43:14;5.88;;;3.65;;
6392;SDS011;3229;42.674;23.282;2023-02-19T08:45:43;5.15;;;4.03;;
6392;SDS011;3229;42.674;23.282;2023-02-19T08:48:11;4.47;;;3.95;;
6392;SDS011;3229;42.674;23.282;2023-02-19T08:50:38;5.82;;;4.00;;
6392;SDS011;3229;42.674;23.282;2023-02-19T08:53:07;4.72;;;3.70;;
6392;SDS011;3229;42.674;23.282;2023-02-19T08:55:35;4.95;;;3.85;;
6392;SDS011;3229;42.674;23.282;2023-02-19T08:58:03;3.95;;;3.25;;
6392;SDS011;3229;42.674;23.282;2023-02-19T09:00:30;5.10;;;3.35;;
6392;SDS011;3229;42.674;23.282;2023-02-19T09:02:57;5.60;;;3.75;;
6392;SDS011;3229;42.674;23.282;2023-02-19T09:05:24;5.38;;;3.70;;
6392;SDS011;3229;42.674;23.282;2023-02-19T09:07:51;4.32;;;3.78;;
6392;SDS011;3229;42.674;23.282;2023-02-19T09:10:19;6.03;;;3.70;;
6392;SDS011;3229;42.674;23.282;2023-02-19T09:12:46;4.50;;;4.10;;
6392;SDS011;3229;42.674;23.282;2023-02-19T09:15:13;5.90;;;3.92;;
6392;SDS011;3229;42.674;23.282;2023-02-19T09:17:40;4.20;;;3.80;;
6392;SDS011;3229;42.674;23.282;2023-02-19T09:20:07;4.05;;;3.40;;
6392;SDS011;3229;42.674;23.282;2023-02-19T09:22:34;4.18;;;3.78;;
6392;SDS011;3229;42.674;23.282;2023-02-19T09:25:01;3.97;;;3.33;;
6392;SDS011;3229;42.674;23.282;2023-02-19T09:27:29;4.60;;;3.95;;
6392;SDS011;3229;42.674;23.282;2023-02-19T09:29:57;6.30;;;4.20;;
6392;SDS011;3229;42.674;23.282;2023-02-19T09:32:24;6.10;;;3.65;;
6392;SDS011;3229;42.674;23.282;2023-02-19T09:34:50;4.10;;;3.70;;
6392;SDS011;3229;42.674;23.282;2023-02-19T09:37:17;5.95;;;3.83;;
6392;SDS011;3229;42.674;23.282;2023-02-19T09:39:44;4.68;;;3.45;;
6392;SDS011;3229;42.674;23.282;2023-02-19T09:42:11;5.00;;;4.05;;
6392;SDS011;3229;42.674;23.282;2023-02-19T09:44:44;3.88;;;3.47;;
6392;SDS011;3229;42.674;23.282;2023-02-19T09:47:15;4.18;;;3.78;;
6392;SDS011;3229;42.674;23.282;2023-02-19T09:49:46;4.22;;;3.72;;
6392;SDS011;3229;42.674;23.282;2023-02-19T09:52:17;4.38;;;3.95;;
6392;SDS011;3229;42.674;23.282;2023-02-19T09:54:49;3.92;;;3.22;;
6392;SDS011;3229;42.674;23.282;2023-02-19T09:57:21;6.05;;;3.80;;
6392;SDS011;3229;42.674;23.282;2023-02-19T09:59:51;5.20;;;3.85;;
6392;SDS011;3229;42.674;23.282;2023-02-19T10:02:24;3.75;;;3.38;;
6392;SDS011;3229;42.674;23.282;2023-02-19T10:04:52;3.88;;;3.40;;
6392;SDS011;3229;42.674;23.282;2023-02-19T10:07:19;4.13;;;3.40;;
6392;SDS011;3229;42.674;23.282;2023-02-19T10:09:50;4.18;;;3.35;;
6392;SDS011;3229;42.674;23.282;2023-02-19T10:12:22;4.70;;;3.53;;
6392;SDS011;3229;42.674;23.282;2023-02-19T10:14:53;5.57;;;3.75;;
6392;SDS011;3229;42.674;23.282;2023-02-19T10:17:28;5.38;;;3.80;;
6392;SDS011;3229;42.674;23.282;2023-02-19T10:19:58;4.65;;;3.33;;
6392;SDS011;3229;42.674;23.282;2023-02-19T10:22:27;5.45;;;3.75;;
6392;SDS011;3229;42.674;23.282;2023-02-19T10:24:55;3.80;;;3.40;;
6392;SDS011;3229;42.674;23.282;2023-02-19T10:27:24;3.47;;;3.17;;
6392;SDS011;3229;42.674;23.282;2023-02-19T10:29:55;3.97;;;3.58;;
6392;SDS011;3229;42.674;23.282;2023-02-19T10:32:23;3.65;;;3.33;;
6392;SDS011;3229;42.674;23.282;2023-02-19T10:35:06;4.68;;;3.70;;
6392;SDS011;3229;42.674;23.282;2023-02-19T10:37:34;6.45;;;3.83;;
6392;SDS011;3229;42.674;23.282;2023-02-19T10:40:10;5.57;;;3.83;;
6392;SDS011;3229;42.674;23.282;2023-02-19T10:42:43;4.57;;;3.35;;
6392;SDS011;3229;42.674;23.282;2023-02-19T10:45:16;3.83;;;3.53;;
6392;SDS011;3229;42.674;23.282;2023-02-19T10:47:45;3.92;;;3.55;;
6392;SDS011;3229;42.674;23.282;2023-02-19T10:50:18;5.05;;;3.78;;
6392;SDS011;3229;42.674;23.282;2023-02-19T10:52:50;4.63;;;3.70;;
6392;SDS011;3229;42.674;23.282;2023-02-19T10:55:23;5.22;;;3.50;;
6392;SDS011;3229;42.674;23.282;2023-02-19T10:57:53;4.10;;;3.63;;
6392;SDS011;3229;42.674;23.282;2023-02-19T11:00:22;4.38;;;3.75;;
6392;SDS011;3229;42.674;23.282;2023-02-19T11:05:48;3.92;;;3.60;;
6392;SDS011;3229;42.674;23.282;2023-02-19T11:08:20;4.47;;;3.80;;
6392;SDS011;3229;42.674;23.282;2023-02-19T11:10:48;3.75;;;3.40;;
6392;SDS011;3229;42.674;23.282;2023-02-19T11:13:16;3.78;;;3.47;;
6392;SDS011;3229;42.674;23.282;2023-02-19T11:15:51;4.00;;;3.70;;
6392;SDS011;3229;42.674;23.282;2023-02-19T11:18:21;3.90;;;3.50;;
6392;SDS011;3229;42.674;23.282;2023-02-19T11:20:49;4.50;;;3.78;;
6392;SDS011;3229;42.674;23.282;2023-02-19T11:23:21;3.92;;;3.53;;
6392;SDS011;3229;42.674;23.282;2023-02-19T11:25:52;4.30;;;3.50;;
6392;SDS011;3229;42.674;23.282;2023-02-19T11:28:23;4.80;;;3.65;;
6392;SDS011;3229;42.674;23.282;2023-02-19T11:30:58;3.53;;;3.22;;
6392;SDS011;3229;42.674;23.282;2023-02-19T11:33:42;3.33;;;3.03;;
6392;SDS011;3229;42.674;23.282;2023-02-19T11:36:24;5.25;;;3.80;;
6392;SDS011;3229;42.674;23.282;2023-02-19T11:38:53;3.50;;;2.97;;
6392;SDS011;3229;42.674;23.282;2023-02-19T11:41:24;3.97;;;3.58;;
6392;SDS011;3229;42.674;23.282;2023-02-19T11:44:03;4.15;;;2.90;;
6392;SDS011;3229;42.674;23.282;2023-02-19T11:46:44;3.92;;;3.50;;
6392;SDS011;3229;42.674;23.282;2023-02-19T11:49:21;5.32;;;3.70;;
6392;SDS011;3229;42.674;23.282;2023-02-19T11:52:03;4.15;;;3.47;;
6392;SDS011;3229;42.674;23.282;2023-02-19T11:54:41;4.32;;;3.60;;
6392;SDS011;3229;42.674;23.282;2023-02-19T11:57:17;4.15;;;3.67;;
6392;SDS011;3229;42.674;23.282;2023-02-19T11:59:58;3.17;;;2.95;;
6392;SDS011;3229;42.674;23.282;2023-02-19T12:02:49;3.97;;;3.20;;
6392;SDS011;3229;42.674;23.282;2023-02-19T12:05:39;3.20;;;2.90;;
6392;SDS011;3229;42.674;23.282;2023-02-19T12:08:22;3.75;;;3.40;;
6392;SDS011;3229;42.674;23.282;2023-02-19T12:14:21;3.70;;;3.03;;
6392;SDS011;3229;42.674;23.282;2023-02-19T12:17:06;4.35;;;3.38;;
6392;SDS011;3229;42.674;23.282;2023-02-19T12:19:43;3.50;;;3.20;;
6392;SDS011;3229;42.674;23.282;2023-02-19T12:22:26;4.00;;;3.28;;
6392;SDS011;3229;42.674;23.282;2023-02-19T12:24:59;3.13;;;2.90;;
6392;SDS011;3229;42.674;23.282;2023-02-19T12:28:03;3.90;;;3.40;;
6392;SDS011;3229;42.674;23.282;2023-02-19T12:30:45;4.47;;;3.05;;
6392;SDS011;3229;42.674;23.282;2023-02-19T12:33:39;3.78;;;3.28;;
6392;SDS011;3229;42.674;23.282;2023-02-19T12:36:20;3.30;;;3.00;;
6392;SDS011;3229;42.674;23.282;2023-02-19T12:38:57;3.22;;;2.92;;
6392;SDS011;3229;42.674;23.282;2023-02-19T12:41:35;3.45;;;3.15;;
6392;SDS011;3229;42.674;23.282;2023-02-19T12:44:10;4.00;;;3.60;;
6392;SDS011;3229;42.674;23.282;2023-02-19T12:46:43;3.85;;;3.25;;
6392;SDS011;3229;42.674;23.282;2023-02-19T12:49:15;3.45;;;2.83;;
6392;SDS011;3229;42.674;23.282;2023-02-19T12:51:50;3.05;;;2.80;;
6392;SDS011;3229;42.674;23.282;2023-02-19T12:54:22;3.50;;;3.05;;
6392;SDS011;3229;42.674;23.282;2023-02-19T12:56:54;3.65;;;2.80;;
6392;SDS011;3229;42.674;23.282;2023-02-19T12:59:27;3.40;;;3.10;;
6392;SDS011;3229;42.674;23.282;2023-02-19T13:01:59;3.13;;;2.83;;
6392;SDS011;3229;42.674;23.282;2023-02-19T13:04:33;4.57;;;3.50;;
6392;SDS011;3229;42.674;23.282;2023-02-19T13:07:10;3.35;;;3.05;;
6392;SDS011;3229;42.674;23.282;2023-02-19T13:09:40;4.28;;;3.13;;
6392;SDS011;3229;42.674;23.282;2023-02-19T13:12:13;5.82;;;3.67;;
6392;SDS011;3229;42.674;23.282;2023-02-19T13:14:45;3.65;;;3.30;;
6392;SDS011;3229;42.674;23.282;2023-02-19T13:17:18;2.97;;;2.78;;
6392;SDS011;3229;42.674;23.282;2023-02-19T13:19:50;3.55;;;3.03;;
6392;SDS011;3229;42.674;23.282;2023-02-19T13:22:25;3.40;;;3.10;;
6392;SDS011;3229;42.674;23.282;2023-02-19T13:25:15;3.92;;;2.80;;
6392;SDS011;3229;42.674;23.282;2023-02-19T13:33:36;3.20;;;2.90;;
6392;SDS011;3229;42.674;23.282;2023-02-19T13:36:12;3.20;;;2.90;;
6392;SDS011;3229;42.674;23.282;2023-02-19T13:38:44;3.20;;;2.90;;
6392;SDS011;3229;42.674;23.282;2023-02-19T13:41:19;3.40;;;3.05;;
6392;SDS011;3229;42.674;23.282;2023-02-19T13:43:55;3.72;;;2.80;;
6392;SDS011;3229;42.674;23.282;2023-02-19T13:46:25;3.33;;;3.00;;
6392;SDS011;3229;42.674;23.282;2023-02-19T14:01:04;3.83;;;3.45;;
6392;SDS011;3229;42.674;23.282;2023-02-19T14:03:38;3.65;;;2.78;;
6392;SDS011;3229;42.674;23.282;2023-02-19T14:06:11;3.58;;;3.20;;
6392;SDS011;3229;42.674;23.282;2023-02-19T14:08:45;3.50;;;3.20;;
6392;SDS011;3229;42.674;23.282;2023-02-19T14:11:14;3.23;;;2.93;;
6392;SDS011;3229;42.674;23.282;2023-02-19T14:13:55;3.40;;;3.10;;
6392;SDS011;3229;42.674;23.282;2023-02-19T14:19:48;4.07;;;3.47;;
6392;SDS011;3229;42.674;23.282;2023-02-19T14:25:33;3.55;;;2.80;;
6392;SDS011;3229;42.674;23.282;2023-02-19T14:28:16;4.27;;;3.20;;
6392;SDS011;3229;42.674;23.282;2023-02-19T14:31:06;3.70;;;2.97;;
6392;SDS011;3229;42.674;23.282;2023-02-19T14:33:36;5.57;;;3.40;;
6392;SDS011;3229;42.674;23.282;2023-02-19T14:36:05;3.13;;;2.83;;
6392;SDS011;3229;42.674;23.282;2023-02-19T14:38:43;3.13;;;2.87;;
6392;SDS011;3229;42.674;23.282;2023-02-19T14:41:13;4.10;;;3.30;;
6392;SDS011;3229;42.674;23.282;2023-02-19T14:43:42;4.07;;;3.67;;
6392;SDS011;3229;42.674;23.282;2023-02-19T14:46:14;3.47;;;3.17;;
6392;SDS011;3229;42.674;23.282;2023-02-19T14:48:46;3.40;;;3.10;;
6392;SDS011;3229;42.674;23.282;2023-02-19T14:51:15;4.45;;;2.90;;
6392;SDS011;3229;42.674;23.282;2023-02-19T14:53:51;3.60;;;3.15;;
6392;SDS011;3229;42.674;23.282;2023-02-19T14:56:20;4.15;;;3.30;;
6392;SDS011;3229;42.674;23.282;2023-02-19T14:59:20;3.90;;;3.50;;
6392;SDS011;3229;42.674;23.282;2023-02-19T15:01:55;4.90;;;3.70;;
6392;SDS011;3229;42.674;23.282;2023-02-19T15:04:23;4.00;;;3.60;;
6392;SDS011;3229;42.674;23.282;2023-02-19T15:06:52;3.45;;;3.15;;
6392;SDS011;3229;42.674;23.282;2023-02-19T15:09:28;4.18;;;3.53;;
6392;SDS011;3229;42.674;23.282;2023-02-19T15:11:58;3.53;;;3.22;;
6392;SDS011;3229;42.674;23.282;2023-02-19T15:14:28;4.13;;;3.37;;
6392;SDS011;3229;42.674;23.282;2023-02-19T15:16:58;4.23;;;3.27;;
6392;SDS011;3229;42.674;23.282;2023-02-19T15:19:28;4.40;;;3.47;;
6392;SDS011;3229;42.674;23.282;2023-02-19T15:21:59;5.60;;;3.60;;
6392;SDS011;3229;42.674;23.282;2023-02-19T15:24:26;6.80;;;3.37;;
6392;SDS011;3229;42.674;23.282;2023-02-19T15:26:53;3.53;;;3.23;;
6392;SDS011;3229;42.674;23.282;2023-02-19T15:29:22;3.70;;;3.30;;
6392;SDS011;3229;42.674;23.282;2023-02-19T15:31:50;3.67;;;3.10;;
6392;SDS011;3229;42.674;23.282;2023-02-19T15:34:20;4.60;;;3.83;;
6392;SDS011;3229;42.674;23.282;2023-02-19T15:36:48;3.93;;;3.53;;
6392;SDS011;3229;42.674;23.282;2023-02-19T15:39:18;4.27;;;3.60;;
6392;SDS011;3229;42.674;23.282;2023-02-19T15:41:52;4.43;;;3.47;;
6392;SDS011;3229;42.674;23.282;2023-02-19T15:44:29;5.50;;;3.80;;
6392;SDS011;3229;42.674;23.282;2023-02-19T15:47:01;5.50;;;4.00;;
6392;SDS011;3229;42.674;23.282;2023-02-19T15:49:38;5.03;;;4.10;;
6392;SDS011;3229;42.674;23.282;2023-02-19T15:52:15;5.97;;;3.40;;
6392;SDS011;3229;42.674;23.282;2023-02-19T15:54:48;4.27;;;3.87;;
6392;SDS011;3229;42.674;23.282;2023-02-19T15:57:21;6.17;;;4.30;;